createdAt,value
2023-05-04T00:00:22.635Z,77.295714
2023-05-04T00:05:25.425Z,78.092000
2023-05-04T00:10:27.937Z,77.588000
2023-05-04T00:15:30.051Z,77.288000
2023-05-04T00:20:32.166Z,76.940000
2023-05-04T00:25:34.854Z,76.748000
2023-05-04T00:30:17.042Z,77.000000
2023-05-04T00:35:19.625Z,77.024000
2023-05-04T00:40:22.257Z,76.884286
2023-05-04T00:45:24.404Z,75.932000
2023-05-04T00:50:26.535Z,74.876000
2023-05-04T00:55:28.622Z,74.516000
2023-05-04T01:00:30.854Z,73.940000
2023-05-04T01:05:33.016Z,73.448000
2023-05-04T01:10:35.398Z,73.052000
2023-05-04T01:15:17.226Z,72.848000
2023-05-04T01:20:20.015Z,72.464000
2023-05-04T01:25:22.522Z,71.831429
2023-05-04T01:30:24.732Z,71.456000
2023-05-04T01:35:27.355Z,71.804000
2023-05-04T01:40:30.140Z,72.824000
2023-05-04T01:45:32.329Z,72.716000
2023-05-04T01:50:34.426Z,72.440000
2023-05-04T01:55:16.365Z,72.836000
2023-05-04T02:00:18.442Z,72.668000
2023-05-04T02:05:20.935Z,72.128000
2023-05-04T02:10:22.994Z,71.754286
2023-05-04T02:15:25.181Z,71.756000
2023-05-04T02:20:27.574Z,71.816000
2023-05-04T02:25:30.188Z,71.432000
2023-05-04T02:30:32.696Z,70.940000
2023-05-04T02:35:35.898Z,70.664000
2023-05-04T02:40:17.870Z,69.788000
2023-05-04T02:45:20.818Z,69.092000
2023-05-04T02:50:23.164Z,67.781429
2023-05-04T02:55:25.257Z,67.712000
2023-05-04T03:00:27.664Z,67.736000
2023-05-04T03:05:29.970Z,67.676000
2023-05-04T03:10:32.924Z,67.280000
2023-05-04T03:15:35.552Z,67.124000
2023-05-04T03:20:17.551Z,67.568000
2023-05-04T03:25:20.094Z,68.024000
2023-05-04T03:30:22.795Z,66.161429
2023-05-04T03:35:25.467Z,65.048000
2023-05-04T03:40:27.601Z,64.736000
2023-05-04T03:45:30.328Z,64.028000
2023-05-04T03:50:32.575Z,63.344000
2023-05-04T03:55:35.077Z,63.140000
2023-05-04T04:00:17.166Z,63.140000
2023-05-04T04:05:19.542Z,63.056000
2023-05-04T04:10:22.092Z,63.127143
2023-05-04T04:15:24.294Z,63.404000
2023-05-04T04:20:26.438Z,63.536000
2023-05-04T04:25:28.989Z,63.188000
2023-05-04T04:30:31.502Z,62.840000
2023-05-04T04:35:34.048Z,62.960000
2023-05-04T04:40:16.651Z,62.960000
2023-05-04T04:45:19.068Z,62.504000
2023-05-04T04:50:21.426Z,61.088000
2023-05-04T04:55:24.089Z,60.414286
2023-05-04T05:00:26.300Z,59.816000
2023-05-04T05:05:30.317Z,59.564000
2023-05-04T05:10:31.002Z,59.444000
2023-05-04T05:15:33.514Z,59.360000
2023-05-04T05:20:35.814Z,59.300000
2023-05-04T05:25:18.148Z,59.264000
2023-05-04T05:30:21.226Z,59.360000
2023-05-04T05:35:24.078Z,59.810000
2023-05-04T05:40:26.259Z,59.792000
2023-05-04T05:45:28.391Z,59.600000
2023-05-04T05:50:31.405Z,60.080000
2023-05-04T05:55:33.840Z,60.044000
2023-05-04T06:00:16.302Z,59.396000
2023-05-04T06:05:19.041Z,59.336000
2023-05-04T06:10:20.605Z,59.444000
2023-05-04T06:15:22.718Z,59.360000
2023-05-04T06:20:25.302Z,59.252000
2023-05-04T06:25:27.626Z,59.048000
2023-05-04T06:30:29.746Z,58.592000
2023-05-04T06:35:31.949Z,58.748000
2023-05-04T06:40:34.405Z,58.556000
2023-05-04T06:45:16.846Z,58.520000
2023-05-04T06:50:19.501Z,58.352000
2023-05-04T06:55:21.958Z,58.280000
2023-05-04T07:00:24.358Z,58.125714
2023-05-04T07:05:26.885Z,58.256000
2023-05-04T07:10:28.910Z,58.280000
2023-05-04T07:15:31.494Z,58.196000
2023-05-04T07:20:34.104Z,58.244000
2023-05-04T07:25:16.163Z,58.124000
2023-05-04T07:30:18.967Z,57.920000
2023-05-04T07:35:21.108Z,57.920000
2023-05-04T07:40:24.265Z,57.752857
2023-05-04T07:45:27.369Z,57.920000
2023-05-04T07:50:29.578Z,57.920000
2023-05-04T07:55:32.173Z,58.052000
2023-05-04T08:00:35.595Z,58.244000
2023-05-04T08:05:17.534Z,58.376000
2023-05-04T08:10:20.718Z,58.292000
2023-05-04T08:15:22.737Z,58.447143
2023-05-04T08:20:25.297Z,58.424000
2023-05-04T08:25:27.711Z,58.256000
2023-05-04T08:30:30.230Z,58.064000
2023-05-04T08:35:32.837Z,57.728000
2023-05-04T08:40:35.372Z,57.668000
2023-05-04T08:45:17.306Z,57.260000
2023-05-04T08:50:19.825Z,56.372000
2023-05-04T08:55:22.562Z,57.341429
2023-05-04T09:00:25.439Z,56.936000
2023-05-04T09:05:33.819Z,57.440000
2023-05-04T09:10:16.232Z,57.296000
2023-05-04T09:15:18.878Z,57.632000
2023-05-04T09:20:22.081Z,57.508571
2023-05-04T09:25:25.134Z,57.164000
2023-05-04T09:30:27.741Z,57.524000
2023-05-04T09:35:33.697Z,57.140000
2023-05-04T09:40:32.813Z,56.636000
2023-05-04T09:45:35.441Z,56.396000
2023-05-04T09:50:20.751Z,56.048000
2023-05-04T09:55:21.059Z,55.856000
2023-05-04T10:00:24.797Z,55.464286
2023-05-04T10:05:27.650Z,55.256000
2023-05-04T10:10:30.739Z,55.040000
2023-05-04T10:15:35.100Z,55.040000
2023-05-04T10:20:19.090Z,55.088000
2023-05-04T10:25:21.219Z,55.160000
2023-05-04T10:30:24.036Z,55.130000
2023-05-04T10:35:27.446Z,54.944000
2023-05-04T10:40:32.205Z,55.040000
2023-05-04T10:45:34.637Z,54.968000
2023-05-04T10:50:17.869Z,54.860000
2023-05-04T10:55:22.689Z,55.014286
2023-05-04T11:00:26.840Z,54.860000
2023-05-04T11:05:29.347Z,54.860000
2023-05-04T11:10:32.748Z,54.668000
2023-05-04T11:15:36.698Z,54.512000
2023-05-04T11:20:17.758Z,54.584000
2023-05-04T11:25:21.109Z,54.584000
2023-05-04T11:30:24.127Z,54.705714
2023-05-04T11:35:27.183Z,54.752000
2023-05-04T11:40:30.203Z,54.332000
2023-05-04T11:45:33.196Z,54.140000
2023-05-04T11:50:16.114Z,54.320000
2023-05-04T11:55:18.907Z,54.452000
2023-05-04T12:00:34.528Z,54.525714
2023-05-04T12:05:25.150Z,54.680000
2023-05-04T12:10:29.494Z,54.704000
2023-05-04T12:15:30.940Z,54.776000
2023-05-04T12:20:35.630Z,54.632000
2023-05-04T12:25:17.140Z,54.104000
2023-05-04T12:30:19.985Z,53.420000
2023-05-04T12:35:24.496Z,53.420000
2023-05-04T12:40:28.711Z,53.432000
2023-05-04T12:45:28.382Z,53.612000
2023-05-04T12:50:31.257Z,53.960000
2023-05-04T12:55:34.806Z,54.068000
2023-05-04T13:00:19.882Z,53.864000
2023-05-04T13:05:24.404Z,53.792857
2023-05-04T13:10:27.631Z,53.936000
2023-05-04T13:15:30.706Z,53.912000
2023-05-04T13:20:33.190Z,54.176000
2023-05-04T13:25:16.413Z,54.692000
2023-05-04T13:30:21.944Z,55.592000
2023-05-04T13:35:24.671Z,56.068571
2023-05-04T13:40:28.384Z,56.288000
2023-05-04T13:45:32.111Z,56.180000
2023-05-04T13:50:35.743Z,56.540000
2023-05-04T13:55:18.653Z,56.804000
2023-05-04T14:00:21.840Z,57.200000
2023-05-04T14:05:25.053Z,58.447143
2023-05-04T14:10:28.522Z,58.760000
2023-05-04T14:15:32.015Z,59.036000
2023-05-04T14:20:33.608Z,58.820000
2023-05-04T14:25:16.745Z,59.000000
2023-05-04T14:30:19.856Z,59.276000
2023-05-04T14:35:23.049Z,59.771429
2023-05-04T14:40:26.120Z,60.068000
2023-05-04T14:45:29.396Z,60.248000
2023-05-04T14:50:32.532Z,60.020000
2023-05-04T14:55:35.488Z,60.140000
2023-05-04T15:00:18.825Z,60.560000
2023-05-04T15:05:23.344Z,61.622857
2023-05-04T15:10:26.998Z,61.772000
2023-05-04T15:15:29.016Z,61.880000
2023-05-04T15:20:31.991Z,62.024000
2023-05-04T15:25:15.814Z,62.204000
2023-05-04T15:30:18.988Z,62.336000
2023-05-04T15:35:21.103Z,62.516000
2023-05-04T15:40:24.258Z,63.512857
2023-05-04T15:45:27.630Z,63.644000
2023-05-04T15:50:31.110Z,63.128000
2023-05-04T15:55:33.179Z,63.272000
2023-05-04T16:00:36.893Z,62.998571
2023-05-04T16:05:18.048Z,63.533750
2023-05-04T16:10:22.236Z,64.676000
2023-05-04T16:15:25.201Z,65.055714
2023-05-04T16:20:29.056Z,66.032000
2023-05-04T16:25:31.673Z,65.624000
2023-05-04T16:30:17.252Z,65.000000
2023-05-04T16:35:20.397Z,65.384000
2023-05-04T16:40:23.363Z,65.004286
2023-05-04T16:45:27.738Z,65.612000
2023-05-04T16:50:31.238Z,66.380000
2023-05-04T16:55:33.146Z,65.864000
2023-05-04T17:00:15.972Z,66.944000
2023-05-04T17:05:20.595Z,67.328000
2023-05-04T17:10:22.150Z,66.791429
2023-05-04T17:15:24.928Z,66.536000
2023-05-04T17:20:28.222Z,65.756000
2023-05-04T17:25:31.385Z,65.240000
2023-05-04T17:30:34.180Z,66.080000
2023-05-04T17:35:25.269Z,66.116000
2023-05-04T17:40:20.656Z,66.104000
2023-05-04T17:45:23.814Z,65.672857
2023-05-04T17:50:26.285Z,66.596000
2023-05-04T17:55:29.458Z,66.800000
2023-05-04T18:00:33.114Z,66.548000
2023-05-04T18:05:16.118Z,65.864000
2023-05-04T18:10:18.790Z,65.924000
2023-05-04T18:15:22.661Z,66.007143
2023-05-04T18:20:25.815Z,66.260000
2023-05-04T18:25:29.054Z,65.972000
2023-05-04T18:30:32.234Z,65.876000
2023-05-04T18:35:15.809Z,66.548000
2023-05-04T18:40:19.295Z,65.900000
2023-05-04T18:45:22.909Z,64.374286
2023-05-04T18:50:26.854Z,64.028000
2023-05-04T18:55:29.178Z,63.620000
2023-05-04T19:00:32.494Z,63.788000
2023-05-04T19:05:16.272Z,63.704000
2023-05-04T19:10:18.692Z,63.608000
2023-05-04T19:15:22.389Z,63.230000
2023-05-04T19:20:26.173Z,63.140000
2023-05-04T19:25:34.669Z,63.452000
2023-05-04T19:30:33.826Z,63.104000
2023-05-04T19:35:15.902Z,63.560000
2023-05-04T19:40:19.615Z,65.624000
2023-05-04T19:45:22.427Z,67.871429
2023-05-04T19:50:26.280Z,67.832000
2023-05-04T19:55:28.801Z,67.292000
2023-05-04T20:00:32.306Z,67.076000
2023-05-04T20:05:36.835Z,66.500000
2023-05-04T20:10:19.678Z,67.928000
2023-05-04T20:15:22.026Z,69.568571
2023-05-04T20:20:25.762Z,69.308000
2023-05-04T20:25:28.365Z,68.804000
2023-05-04T20:30:31.048Z,68.804000
2023-05-04T20:35:34.684Z,68.924000
2023-05-04T20:40:18.256Z,69.632000
2023-05-04T20:45:20.879Z,69.932000
2023-05-04T20:50:25.326Z,69.761429
2023-05-04T20:55:26.852Z,68.516000
2023-05-04T21:00:31.005Z,67.604000
2023-05-04T21:05:33.241Z,65.480000
2023-05-04T21:10:16.425Z,64.916000
2023-05-04T21:15:19.554Z,65.948000
2023-05-04T21:20:23.653Z,65.942857
2023-05-04T21:25:25.476Z,66.176000
2023-05-04T21:30:28.541Z,66.704000
2023-05-04T21:35:31.323Z,68.048000
2023-05-04T21:40:34.206Z,68.996000
2023-05-04T21:45:17.006Z,69.356000
2023-05-04T21:50:20.663Z,70.196000
2023-05-04T21:55:23.556Z,69.877143
2023-05-04T22:00:26.737Z,67.628000
2023-05-04T22:05:31.865Z,66.236000
2023-05-04T22:10:32.475Z,65.840000
2023-05-04T22:15:46.303Z,65.876000
2023-05-04T22:20:18.508Z,65.516000
2023-05-04T22:25:22.751Z,65.120000
2023-05-04T22:30:26.372Z,64.820000
2023-05-04T22:35:28.942Z,64.580000
2023-05-04T22:40:31.916Z,64.412000
2023-05-04T22:45:34.356Z,63.224000
2023-05-04T22:50:17.891Z,62.540000
2023-05-04T22:55:20.530Z,62.156000
2023-05-04T23:00:24.798Z,63.230000
2023-05-04T23:05:27.925Z,63.956000
2023-05-04T23:10:31.180Z,63.320000
2023-05-04T23:15:33.921Z,63.476000
2023-05-04T23:20:16.415Z,63.500000
2023-05-04T23:25:18.827Z,63.500000
2023-05-04T23:30:22.383Z,63.344000
2023-05-04T23:35:24.293Z,63.307143
2023-05-04T23:40:27.880Z,63.116000
2023-05-04T23:45:31.722Z,62.624000
2023-05-04T23:50:34.119Z,62.048000
2023-05-04T23:55:17.726Z,61.520000
